sensor_id;sensor_type;location;lat;lon;timestamp;P1;durP1;ratioP1;P2;durP2;ratioP2
18298;SDS011;9275;48.690;9.686;2024-03-29T00:04:28;2.53;;;1.57;;
18298;SDS011;9275;48.690;9.686;2024-03-29T00:09:31;3.13;;;1.53;;
18298;SDS011;9275;48.690;9.686;2024-03-29T00:14:34;1.70;;;1.20;;
18298;SDS011;9275;48.690;9.686;2024-03-29T00:19:36;2.07;;;1.20;;
18298;SDS011;9275;48.690;9.686;2024-03-29T00:24:40;1.67;;;1.27;;
18298;SDS011;9275;48.690;9.686;2024-03-29T00:29:42;1.20;;;0.90;;
18298;SDS011;9275;48.690;9.686;2024-03-29T00:34:44;1.73;;;1.07;;
18298;SDS011;9275;48.690;9.686;2024-03-29T00:39:48;1.23;;;0.90;;
18298;SDS011;9275;48.690;9.686;2024-03-29T00:44:50;43.00;;;2.93;;
18298;SDS011;9275;48.690;9.686;2024-03-29T00:49:53;0.97;;;0.63;;
18298;SDS011;9275;48.690;9.686;2024-03-29T00:54:56;0.70;;;0.70;;
18298;SDS011;9275;48.690;9.686;2024-03-29T00:59:59;1.20;;;0.70;;
18298;SDS011;9275;48.690;9.686;2024-03-29T01:05:01;1.20;;;0.80;;
18298;SDS011;9275;48.690;9.686;2024-03-29T01:10:05;0.90;;;0.70;;
18298;SDS011;9275;48.690;9.686;2024-03-29T01:15:08;1.00;;;0.70;;
18298;SDS011;9275;48.690;9.686;2024-03-29T01:20:10;0.87;;;0.80;;
18298;SDS011;9275;48.690;9.686;2024-03-29T01:25:14;1.10;;;0.87;;
18298;SDS011;9275;48.690;9.686;2024-03-29T01:30:16;2.97;;;1.00;;
18298;SDS011;9275;48.690;9.686;2024-03-29T01:35:19;0.87;;;0.77;;
18298;SDS011;9275;48.690;9.686;2024-03-29T01:40:22;7.37;;;1.20;;
18298;SDS011;9275;48.690;9.686;2024-03-29T01:45:25;1.57;;;0.97;;
18298;SDS011;9275;48.690;9.686;2024-03-29T01:50:28;0.70;;;0.60;;
18298;SDS011;9275;48.690;9.686;2024-03-29T01:55:33;2.70;;;0.73;;
18298;SDS011;9275;48.690;9.686;2024-03-29T02:00:36;0.63;;;0.63;;
18298;SDS011;9275;48.690;9.686;2024-03-29T02:05:44;1.10;;;0.70;;
18298;SDS011;9275;48.690;9.686;2024-03-29T02:10:50;1.40;;;1.03;;
18298;SDS011;9275;48.690;9.686;2024-03-29T02:15:54;1.20;;;0.90;;
18298;SDS011;9275;48.690;9.686;2024-03-29T02:20:57;1.50;;;1.00;;
18298;SDS011;9275;48.690;9.686;2024-03-29T02:26:02;12.77;;;1.70;;
18298;SDS011;9275;48.690;9.686;2024-03-29T02:31:06;2.80;;;1.57;;
18298;SDS011;9275;48.690;9.686;2024-03-29T02:36:11;10.63;;;2.57;;
18298;SDS011;9275;48.690;9.686;2024-03-29T02:41:16;2.73;;;1.70;;
18298;SDS011;9275;48.690;9.686;2024-03-29T02:46:20;4.23;;;2.00;;
18298;SDS011;9275;48.690;9.686;2024-03-29T02:51:23;4.03;;;2.20;;
18298;SDS011;9275;48.690;9.686;2024-03-29T02:56:28;4.27;;;2.33;;
18298;SDS011;9275;48.690;9.686;2024-03-29T03:01:31;3.90;;;2.73;;
18298;SDS011;9275;48.690;9.686;2024-03-29T03:06:35;5.70;;;3.00;;
18298;SDS011;9275;48.690;9.686;2024-03-29T03:11:40;3.50;;;2.40;;
18298;SDS011;9275;48.690;9.686;2024-03-29T03:16:43;5.30;;;2.90;;
18298;SDS011;9275;48.690;9.686;2024-03-29T03:21:47;7.40;;;3.63;;
18298;SDS011;9275;48.690;9.686;2024-03-29T03:26:52;5.63;;;3.07;;
18298;SDS011;9275;48.690;9.686;2024-03-29T03:31:55;6.87;;;3.03;;
18298;SDS011;9275;48.690;9.686;2024-03-29T03:36:58;8.23;;;3.70;;
18298;SDS011;9275;48.690;9.686;2024-03-29T03:42:03;6.67;;;3.47;;
18298;SDS011;9275;48.690;9.686;2024-03-29T03:47:07;8.30;;;3.80;;
18298;SDS011;9275;48.690;9.686;2024-03-29T03:52:10;7.03;;;3.40;;
18298;SDS011;9275;48.690;9.686;2024-03-29T03:57:15;9.57;;;3.07;;
18298;SDS011;9275;48.690;9.686;2024-03-29T04:02:19;7.93;;;3.33;;
18298;SDS011;9275;48.690;9.686;2024-03-29T04:07:22;8.77;;;2.57;;
18298;SDS011;9275;48.690;9.686;2024-03-29T04:12:27;7.10;;;2.67;;
18298;SDS011;9275;48.690;9.686;2024-03-29T04:17:30;7.00;;;2.73;;
18298;SDS011;9275;48.690;9.686;2024-03-29T04:22:33;6.50;;;2.70;;
18298;SDS011;9275;48.690;9.686;2024-03-29T04:27:38;6.33;;;2.20;;
18298;SDS011;9275;48.690;9.686;2024-03-29T04:32:42;7.70;;;2.73;;
18298;SDS011;9275;48.690;9.686;2024-03-29T04:37:45;8.20;;;3.20;;
18298;SDS011;9275;48.690;9.686;2024-03-29T04:42:50;7.43;;;3.50;;
18298;SDS011;9275;48.690;9.686;2024-03-29T04:47:53;10.07;;;3.60;;
18298;SDS011;9275;48.690;9.686;2024-03-29T04:52:56;12.07;;;3.70;;
18298;SDS011;9275;48.690;9.686;2024-03-29T04:58:01;12.53;;;3.50;;
18298;SDS011;9275;48.690;9.686;2024-03-29T05:03:04;10.93;;;3.03;;
18298;SDS011;9275;48.690;9.686;2024-03-29T05:08:08;9.87;;;2.60;;
18298;SDS011;9275;48.690;9.686;2024-03-29T05:13:12;9.37;;;2.63;;
18298;SDS011;9275;48.690;9.686;2024-03-29T05:18:16;7.87;;;2.90;;
18298;SDS011;9275;48.690;9.686;2024-03-29T05:23:19;7.97;;;2.80;;
18298;SDS011;9275;48.690;9.686;2024-03-29T05:28:24;8.77;;;2.40;;
18298;SDS011;9275;48.690;9.686;2024-03-29T05:33:28;6.77;;;2.07;;
18298;SDS011;9275;48.690;9.686;2024-03-29T05:38:31;7.50;;;1.97;;
18298;SDS011;9275;48.690;9.686;2024-03-29T05:43:35;7.67;;;2.10;;
18298;SDS011;9275;48.690;9.686;2024-03-29T05:48:40;5.57;;;2.00;;
18298;SDS011;9275;48.690;9.686;2024-03-29T05:53:44;7.30;;;2.00;;
18298;SDS011;9275;48.690;9.686;2024-03-29T05:58:48;7.33;;;1.90;;
18298;SDS011;9275;48.690;9.686;2024-03-29T06:03:52;6.73;;;2.30;;
18298;SDS011;9275;48.690;9.686;2024-03-29T06:08:57;5.93;;;1.93;;
18298;SDS011;9275;48.690;9.686;2024-03-29T06:14:01;5.27;;;1.57;;
18298;SDS011;9275;48.690;9.686;2024-03-29T06:19:22;8.10;;;1.90;;
18298;SDS011;9275;48.690;9.686;2024-03-29T06:24:25;5.13;;;1.70;;
18298;SDS011;9275;48.690;9.686;2024-03-29T06:29:30;6.03;;;1.70;;
18298;SDS011;9275;48.690;9.686;2024-03-29T06:34:34;2.57;;;1.40;;
18298;SDS011;9275;48.690;9.686;2024-03-29T06:39:37;2.73;;;1.70;;
18298;SDS011;9275;48.690;9.686;2024-03-29T06:44:42;5.37;;;1.70;;
18298;SDS011;9275;48.690;9.686;2024-03-29T06:49:45;4.50;;;1.60;;
18298;SDS011;9275;48.690;9.686;2024-03-29T06:54:49;5.90;;;1.90;;
18298;SDS011;9275;48.690;9.686;2024-03-29T06:59:53;10.47;;;2.13;;
18298;SDS011;9275;48.690;9.686;2024-03-29T07:04:56;4.80;;;2.20;;
18298;SDS011;9275;48.690;9.686;2024-03-29T07:10:07;5.13;;;2.00;;
18298;SDS011;9275;48.690;9.686;2024-03-29T07:15:12;7.90;;;2.27;;
18298;SDS011;9275;48.690;9.686;2024-03-29T07:20:15;7.20;;;2.47;;
18298;SDS011;9275;48.690;9.686;2024-03-29T07:25:19;7.77;;;2.63;;
18298;SDS011;9275;48.690;9.686;2024-03-29T07:30:24;9.67;;;3.17;;
18298;SDS011;9275;48.690;9.686;2024-03-29T07:35:27;7.07;;;2.90;;
18298;SDS011;9275;48.690;9.686;2024-03-29T07:40:31;7.27;;;2.80;;
18298;SDS011;9275;48.690;9.686;2024-03-29T07:45:37;9.80;;;3.60;;
18298;SDS011;9275;48.690;9.686;2024-03-29T07:50:40;9.40;;;3.90;;
18298;SDS011;9275;48.690;9.686;2024-03-29T07:55:43;6.03;;;3.20;;
18298;SDS011;9275;48.690;9.686;2024-03-29T08:00:48;9.70;;;3.83;;
18298;SDS011;9275;48.690;9.686;2024-03-29T08:05:56;8.43;;;3.93;;
18298;SDS011;9275;48.690;9.686;2024-03-29T08:11:00;11.70;;;4.30;;
18298;SDS011;9275;48.690;9.686;2024-03-29T08:16:05;12.77;;;4.83;;
18298;SDS011;9275;48.690;9.686;2024-03-29T08:21:08;9.40;;;4.30;;
18298;SDS011;9275;48.690;9.686;2024-03-29T08:26:13;12.83;;;5.20;;
18298;SDS011;9275;48.690;9.686;2024-03-29T08:31:17;11.17;;;4.67;;
18298;SDS011;9275;48.690;9.686;2024-03-29T08:36:21;11.97;;;5.30;;
18298;SDS011;9275;48.690;9.686;2024-03-29T08:41:24;10.17;;;5.30;;
18298;SDS011;9275;48.690;9.686;2024-03-29T08:46:29;11.60;;;5.87;;
18298;SDS011;9275;48.690;9.686;2024-03-29T08:51:32;10.43;;;4.70;;
18298;SDS011;9275;48.690;9.686;2024-03-29T08:56:36;10.20;;;5.20;;
18298;SDS011;9275;48.690;9.686;2024-03-29T09:01:44;10.37;;;5.03;;
18298;SDS011;9275;48.690;9.686;2024-03-29T09:06:49;10.03;;;4.93;;
18298;SDS011;9275;48.690;9.686;2024-03-29T09:11:55;10.57;;;4.50;;
18298;SDS011;9275;48.690;9.686;2024-03-29T09:17:00;7.43;;;4.17;;
18298;SDS011;9275;48.690;9.686;2024-03-29T09:22:04;11.47;;;3.87;;
18298;SDS011;9275;48.690;9.686;2024-03-29T09:27:07;6.97;;;3.17;;
18298;SDS011;9275;48.690;9.686;2024-03-29T09:32:12;6.67;;;2.73;;
18298;SDS011;9275;48.690;9.686;2024-03-29T09:37:18;4.47;;;2.60;;
18298;SDS011;9275;48.690;9.686;2024-03-29T09:42:22;7.43;;;2.40;;
18298;SDS011;9275;48.690;9.686;2024-03-29T09:47:28;10.33;;;3.57;;
18298;SDS011;9275;48.690;9.686;2024-03-29T09:52:34;5.90;;;2.73;;
18298;SDS011;9275;48.690;9.686;2024-03-29T09:57:37;7.13;;;2.43;;
18298;SDS011;9275;48.690;9.686;2024-03-29T10:02:42;5.20;;;2.20;;
18298;SDS011;9275;48.690;9.686;2024-03-29T10:07:47;7.33;;;2.30;;
18298;SDS011;9275;48.690;9.686;2024-03-29T10:12:51;5.10;;;2.10;;
18298;SDS011;9275;48.690;9.686;2024-03-29T10:17:55;6.63;;;1.80;;
18298;SDS011;9275;48.690;9.686;2024-03-29T10:22:59;5.57;;;1.90;;
18298;SDS011;9275;48.690;9.686;2024-03-29T10:28:05;8.80;;;1.83;;
18298;SDS011;9275;48.690;9.686;2024-03-29T10:33:10;8.70;;;1.80;;
18298;SDS011;9275;48.690;9.686;2024-03-29T10:38:14;7.93;;;1.67;;
18298;SDS011;9275;48.690;9.686;2024-03-29T10:43:17;6.90;;;2.10;;
18298;SDS011;9275;48.690;9.686;2024-03-29T10:48:23;6.33;;;2.20;;
18298;SDS011;9275;48.690;9.686;2024-03-29T10:53:28;9.37;;;2.00;;
18298;SDS011;9275;48.690;9.686;2024-03-29T10:58:35;11.47;;;1.93;;
18298;SDS011;9275;48.690;9.686;2024-03-29T11:03:43;8.13;;;1.97;;
18298;SDS011;9275;48.690;9.686;2024-03-29T11:08:52;10.07;;;2.50;;
18298;SDS011;9275;48.690;9.686;2024-03-29T11:14:01;6.90;;;2.20;;
18298;SDS011;9275;48.690;9.686;2024-03-29T11:19:10;8.20;;;2.30;;
18298;SDS011;9275;48.690;9.686;2024-03-29T11:24:16;10.20;;;2.30;;
18298;SDS011;9275;48.690;9.686;2024-03-29T11:29:20;10.30;;;2.43;;
18298;SDS011;9275;48.690;9.686;2024-03-29T11:34:26;9.50;;;2.37;;
18298;SDS011;9275;48.690;9.686;2024-03-29T11:39:34;11.00;;;2.50;;
18298;SDS011;9275;48.690;9.686;2024-03-29T11:44:38;11.27;;;2.47;;
18298;SDS011;9275;48.690;9.686;2024-03-29T11:49:43;12.87;;;2.63;;
18298;SDS011;9275;48.690;9.686;2024-03-29T11:54:46;11.20;;;2.23;;
18298;SDS011;9275;48.690;9.686;2024-03-29T11:59:51;9.40;;;2.33;;
18298;SDS011;9275;48.690;9.686;2024-03-29T12:04:56;16.07;;;3.03;;
18298;SDS011;9275;48.690;9.686;2024-03-29T12:09:59;16.90;;;2.90;;
18298;SDS011;9275;48.690;9.686;2024-03-29T12:15:03;14.67;;;2.70;;
18298;SDS011;9275;48.690;9.686;2024-03-29T12:20:09;13.70;;;3.60;;
18298;SDS011;9275;48.690;9.686;2024-03-29T12:25:13;19.77;;;3.50;;
18298;SDS011;9275;48.690;9.686;2024-03-29T12:30:17;15.03;;;3.00;;
18298;SDS011;9275;48.690;9.686;2024-03-29T12:35:22;15.27;;;3.40;;
18298;SDS011;9275;48.690;9.686;2024-03-29T12:40:27;16.63;;;3.77;;
18298;SDS011;9275;48.690;9.686;2024-03-29T12:45:36;13.43;;;3.37;;
18298;SDS011;9275;48.690;9.686;2024-03-29T12:50:43;16.03;;;3.97;;
18298;SDS011;9275;48.690;9.686;2024-03-29T12:55:47;16.63;;;3.53;;
18298;SDS011;9275;48.690;9.686;2024-03-29T13:00:50;18.37;;;4.17;;
18298;SDS011;9275;48.690;9.686;2024-03-29T13:05:56;17.80;;;3.13;;
18298;SDS011;9275;48.690;9.686;2024-03-29T13:11:00;15.23;;;3.37;;
18298;SDS011;9275;48.690;9.686;2024-03-29T13:16:03;15.37;;;3.50;;
18298;SDS011;9275;48.690;9.686;2024-03-29T13:21:08;18.50;;;4.40;;
18298;SDS011;9275;48.690;9.686;2024-03-29T13:26:11;12.53;;;3.23;;
18298;SDS011;9275;48.690;9.686;2024-03-29T13:31:15;14.93;;;3.40;;
18298;SDS011;9275;48.690;9.686;2024-03-29T13:36:20;14.53;;;3.80;;
18298;SDS011;9275;48.690;9.686;2024-03-29T13:41:23;15.13;;;3.60;;
18298;SDS011;9275;48.690;9.686;2024-03-29T13:46:26;13.90;;;3.43;;
18298;SDS011;9275;48.690;9.686;2024-03-29T13:51:31;12.13;;;3.30;;
18298;SDS011;9275;48.690;9.686;2024-03-29T13:56:34;14.23;;;4.30;;
18298;SDS011;9275;48.690;9.686;2024-03-29T14:01:38;15.20;;;4.40;;
18298;SDS011;9275;48.690;9.686;2024-03-29T14:06:42;17.30;;;4.27;;
18298;SDS011;9275;48.690;9.686;2024-03-29T14:11:46;16.50;;;4.57;;
18298;SDS011;9275;48.690;9.686;2024-03-29T14:16:49;19.23;;;4.67;;
18298;SDS011;9275;48.690;9.686;2024-03-29T14:21:54;15.07;;;4.50;;
18298;SDS011;9275;48.690;9.686;2024-03-29T14:26:57;16.40;;;4.20;;
18298;SDS011;9275;48.690;9.686;2024-03-29T14:32:01;14.97;;;3.87;;
18298;SDS011;9275;48.690;9.686;2024-03-29T14:37:06;16.97;;;3.97;;
18298;SDS011;9275;48.690;9.686;2024-03-29T14:42:14;13.43;;;4.27;;
18298;SDS011;9275;48.690;9.686;2024-03-29T14:47:23;12.03;;;3.80;;
18298;SDS011;9275;48.690;9.686;2024-03-29T14:52:27;14.10;;;4.40;;
18298;SDS011;9275;48.690;9.686;2024-03-29T14:57:31;14.00;;;4.10;;
18298;SDS011;9275;48.690;9.686;2024-03-29T15:02:34;12.00;;;4.00;;
18298;SDS011;9275;48.690;9.686;2024-03-29T15:07:40;16.93;;;3.70;;
18298;SDS011;9275;48.690;9.686;2024-03-29T15:12:44;10.47;;;3.90;;
18298;SDS011;9275;48.690;9.686;2024-03-29T15:17:47;11.73;;;3.77;;
18298;SDS011;9275;48.690;9.686;2024-03-29T15:22:52;11.43;;;3.97;;
18298;SDS011;9275;48.690;9.686;2024-03-29T15:27:57;10.20;;;3.40;;
18298;SDS011;9275;48.690;9.686;2024-03-29T15:33:18;16.60;;;3.63;;
18298;SDS011;9275;48.690;9.686;2024-03-29T15:38:22;9.40;;;3.23;;
18298;SDS011;9275;48.690;9.686;2024-03-29T15:43:30;11.53;;;3.43;;
18298;SDS011;9275;48.690;9.686;2024-03-29T15:48:33;15.67;;;3.93;;
18298;SDS011;9275;48.690;9.686;2024-03-29T15:53:38;12.23;;;4.13;;
18298;SDS011;9275;48.690;9.686;2024-03-29T15:58:42;17.23;;;5.40;;
18298;SDS011;9275;48.690;9.686;2024-03-29T16:03:45;16.40;;;4.37;;
18298;SDS011;9275;48.690;9.686;2024-03-29T16:08:50;18.00;;;5.37;;
18298;SDS011;9275;48.690;9.686;2024-03-29T16:13:53;13.30;;;4.60;;
18298;SDS011;9275;48.690;9.686;2024-03-29T16:18:56;13.27;;;4.20;;
18298;SDS011;9275;48.690;9.686;2024-03-29T16:24:01;11.87;;;4.60;;
18298;SDS011;9275;48.690;9.686;2024-03-29T16:29:05;10.67;;;4.00;;
18298;SDS011;9275;48.690;9.686;2024-03-29T16:34:13;11.53;;;4.10;;
18298;SDS011;9275;48.690;9.686;2024-03-29T16:39:18;9.33;;;3.90;;
18298;SDS011;9275;48.690;9.686;2024-03-29T16:44:21;10.97;;;4.00;;
18298;SDS011;9275;48.690;9.686;2024-03-29T16:49:24;13.23;;;3.80;;
18298;SDS011;9275;48.690;9.686;2024-03-29T16:54:29;8.40;;;3.20;;
18298;SDS011;9275;48.690;9.686;2024-03-29T16:59:32;11.67;;;3.30;;
18298;SDS011;9275;48.690;9.686;2024-03-29T17:04:37;9.07;;;3.30;;
18298;SDS011;9275;48.690;9.686;2024-03-29T17:09:41;8.47;;;3.10;;
18298;SDS011;9275;48.690;9.686;2024-03-29T17:14:45;5.93;;;2.90;;
18298;SDS011;9275;48.690;9.686;2024-03-29T17:19:49;10.47;;;3.50;;
18298;SDS011;9275;48.690;9.686;2024-03-29T17:24:54;9.43;;;3.87;;
18298;SDS011;9275;48.690;9.686;2024-03-29T17:29:57;7.37;;;3.20;;
18298;SDS011;9275;48.690;9.686;2024-03-29T17:35:01;8.83;;;3.20;;
18298;SDS011;9275;48.690;9.686;2024-03-29T17:40:07;9.33;;;2.40;;
18298;SDS011;9275;48.690;9.686;2024-03-29T17:45:11;9.10;;;2.53;;
18298;SDS011;9275;48.690;9.686;2024-03-29T17:50:14;5.03;;;2.33;;
18298;SDS011;9275;48.690;9.686;2024-03-29T17:55:19;4.60;;;2.40;;
18298;SDS011;9275;48.690;9.686;2024-03-29T18:00:22;8.53;;;2.67;;
18298;SDS011;9275;48.690;9.686;2024-03-29T18:05:26;5.30;;;2.40;;
18298;SDS011;9275;48.690;9.686;2024-03-29T18:10:31;5.70;;;2.20;;
18298;SDS011;9275;48.690;9.686;2024-03-29T18:15:34;4.07;;;2.00;;
18298;SDS011;9275;48.690;9.686;2024-03-29T18:20:41;4.43;;;1.90;;
18298;SDS011;9275;48.690;9.686;2024-03-29T18:25:46;3.80;;;1.83;;
18298;SDS011;9275;48.690;9.686;2024-03-29T18:30:50;3.23;;;1.67;;
18298;SDS011;9275;48.690;9.686;2024-03-29T18:35:53;4.23;;;1.90;;
18298;SDS011;9275;48.690;9.686;2024-03-29T18:41:01;4.50;;;2.00;;
18298;SDS011;9275;48.690;9.686;2024-03-29T18:46:05;5.73;;;2.20;;
18298;SDS011;9275;48.690;9.686;2024-03-29T18:51:09;6.03;;;2.20;;
18298;SDS011;9275;48.690;9.686;2024-03-29T18:56:14;7.07;;;2.50;;
18298;SDS011;9275;48.690;9.686;2024-03-29T19:01:18;6.40;;;2.60;;
18298;SDS011;9275;48.690;9.686;2024-03-29T19:06:21;5.90;;;2.03;;
18298;SDS011;9275;48.690;9.686;2024-03-29T19:11:29;9.53;;;2.57;;
18298;SDS011;9275;48.690;9.686;2024-03-29T19:16:33;8.97;;;2.93;;
18298;SDS011;9275;48.690;9.686;2024-03-29T19:21:36;8.50;;;3.40;;
18298;SDS011;9275;48.690;9.686;2024-03-29T19:26:44;8.70;;;3.90;;
18298;SDS011;9275;48.690;9.686;2024-03-29T19:31:48;9.20;;;3.50;;
18298;SDS011;9275;48.690;9.686;2024-03-29T19:36:52;10.37;;;3.30;;
18298;SDS011;9275;48.690;9.686;2024-03-29T19:42:01;10.53;;;4.40;;
18298;SDS011;9275;48.690;9.686;2024-03-29T19:47:05;14.03;;;4.77;;
18298;SDS011;9275;48.690;9.686;2024-03-29T19:52:08;13.43;;;4.50;;
18298;SDS011;9275;48.690;9.686;2024-03-29T19:57:13;10.33;;;3.97;;
18298;SDS011;9275;48.690;9.686;2024-03-29T20:02:16;8.77;;;3.70;;
18298;SDS011;9275;48.690;9.686;2024-03-29T20:07:20;9.17;;;4.60;;
18298;SDS011;9275;48.690;9.686;2024-03-29T20:12:25;9.93;;;4.87;;
18298;SDS011;9275;48.690;9.686;2024-03-29T20:17:29;11.50;;;4.20;;
18298;SDS011;9275;48.690;9.686;2024-03-29T20:22:33;12.17;;;4.37;;
18298;SDS011;9275;48.690;9.686;2024-03-29T20:27:38;8.37;;;4.40;;
18298;SDS011;9275;48.690;9.686;2024-03-29T20:32:41;10.43;;;4.60;;
18298;SDS011;9275;48.690;9.686;2024-03-29T20:37:48;21.77;;;4.60;;
18298;SDS011;9275;48.690;9.686;2024-03-29T20:42:53;7.93;;;4.07;;
18298;SDS011;9275;48.690;9.686;2024-03-29T20:47:57;10.73;;;4.27;;
18298;SDS011;9275;48.690;9.686;2024-03-29T20:53:02;12.10;;;3.93;;
18298;SDS011;9275;48.690;9.686;2024-03-29T20:58:07;12.07;;;4.27;;
18298;SDS011;9275;48.690;9.686;2024-03-29T21:03:13;10.00;;;4.40;;
18298;SDS011;9275;48.690;9.686;2024-03-29T21:08:33;9.80;;;4.53;;
18298;SDS011;9275;48.690;9.686;2024-03-29T21:13:39;13.60;;;5.90;;
18298;SDS011;9275;48.690;9.686;2024-03-29T21:18:42;11.43;;;5.37;;
18298;SDS011;9275;48.690;9.686;2024-03-29T21:23:46;9.80;;;4.63;;
18298;SDS011;9275;48.690;9.686;2024-03-29T21:28:51;32.40;;;7.67;;
18298;SDS011;9275;48.690;9.686;2024-03-29T21:33:54;8.77;;;4.73;;
18298;SDS011;9275;48.690;9.686;2024-03-29T21:38:57;12.23;;;5.30;;
18298;SDS011;9275;48.690;9.686;2024-03-29T21:44:02;10.23;;;4.30;;
18298;SDS011;9275;48.690;9.686;2024-03-29T21:49:06;11.30;;;4.90;;
18298;SDS011;9275;48.690;9.686;2024-03-29T21:54:09;10.97;;;4.83;;
18298;SDS011;9275;48.690;9.686;2024-03-29T21:59:14;9.47;;;4.40;;
18298;SDS011;9275;48.690;9.686;2024-03-29T22:04:17;13.80;;;5.50;;
18298;SDS011;9275;48.690;9.686;2024-03-29T22:09:20;10.40;;;5.10;;
18298;SDS011;9275;48.690;9.686;2024-03-29T22:14:25;13.13;;;5.00;;
18298;SDS011;9275;48.690;9.686;2024-03-29T22:19:29;11.63;;;5.30;;
18298;SDS011;9275;48.690;9.686;2024-03-29T22:24:32;14.60;;;5.00;;
18298;SDS011;9275;48.690;9.686;2024-03-29T22:29:37;14.57;;;5.07;;
18298;SDS011;9275;48.690;9.686;2024-03-29T22:34:41;13.90;;;5.50;;
18298;SDS011;9275;48.690;9.686;2024-03-29T22:39:44;14.30;;;5.37;;
18298;SDS011;9275;48.690;9.686;2024-03-29T22:44:49;12.43;;;5.40;;
18298;SDS011;9275;48.690;9.686;2024-03-29T22:49:53;10.53;;;4.90;;
18298;SDS011;9275;48.690;9.686;2024-03-29T22:54:56;18.63;;;5.83;;
18298;SDS011;9275;48.690;9.686;2024-03-29T23:00:00;15.30;;;5.67;;
18298;SDS011;9275;48.690;9.686;2024-03-29T23:05:11;11.87;;;5.80;;
18298;SDS011;9275;48.690;9.686;2024-03-29T23:10:14;19.00;;;7.33;;
18298;SDS011;9275;48.690;9.686;2024-03-29T23:15:22;114.10;;;12.03;;
18298;SDS011;9275;48.690;9.686;2024-03-29T23:20:25;11.13;;;5.00;;
18298;SDS011;9275;48.690;9.686;2024-03-29T23:25:29;13.03;;;4.77;;
18298;SDS011;9275;48.690;9.686;2024-03-29T23:30:36;31.40;;;5.23;;
18298;SDS011;9275;48.690;9.686;2024-03-29T23:35:39;342.87;;;19.57;;
18298;SDS011;9275;48.690;9.686;2024-03-29T23:40:44;27.97;;;5.43;;
18298;SDS011;9275;48.690;9.686;2024-03-29T23:46:01;23.03;;;4.93;;
18298;SDS011;9275;48.690;9.686;2024-03-29T23:51:07;16.70;;;5.20;;
18298;SDS011;9275;48.690;9.686;2024-03-29T23:56:10;20.53;;;7.17;;
